Time;durP1;ratioP1;P1;durP2;ratioP2;P2;SDS_P1;SDS_P2;PMS_P1;PMS_P2;Temp;Humidity;BMP_temperature;BMP_pressure;BME280_temperature;BME280_humidity;BME280_pressure;Samples;Min_cycle;Max_cycle;Signal;HPM_P1;HPM_P2
2023/09/17 00:00:11;;;;;;;7.20;6.50;;;20.20;95.00;;;;;;5038017;28;20040;-86
2023/09/17 00:02:37;;;;;;;7.85;6.90;;;20.20;94.90;;;;;;5037646;28;20356;-86
2023/09/17 00:05:03;;;;;;;7.07;6.35;;;20.10;94.90;;;;;;5020949;28;20028;-86
2023/09/17 00:07:29;;;;;;;8.27;6.50;;;20.10;94.90;;;;;;5020836;28;20053;-87
2023/09/17 00:09:55;;;;;;;6.63;5.97;;;20.10;94.90;;;;;;5021073;28;20043;-86
2023/09/17 00:12:21;;;;;;;6.88;6.15;;;20.10;94.80;;;;;;5020829;28;20031;-86
2023/09/17 00:14:47;;;;;;;7.53;6.25;;;20.10;94.80;;;;;;5054828;28;20029;-85
2023/09/17 00:17:12;;;;;;;9.23;7.22;;;20.10;94.80;;;;;;5020797;28;20056;-86
2023/09/17 00:19:38;;;;;;;7.70;6.88;;;20.10;94.70;;;;;;5020869;28;20036;-86
2023/09/17 00:22:06;;;;;;;7.10;6.38;;;20.10;94.70;;;;;;5055044;28;20021;-86
2023/09/17 00:24:33;;;;;;;7.50;6.20;;;20.10;94.60;;;;;;5037741;28;20384;-86
2023/09/17 00:26:58;;;;;;;6.60;5.82;;;20.10;94.60;;;;;;5036739;28;20032;-86
2023/09/17 00:29:25;;;;;;;7.97;6.25;;;20.00;94.50;;;;;;5037305;28;20029;-86
2023/09/17 00:31:53;;;;;;;7.20;6.50;;;20.00;94.50;;;;;;5020861;28;20067;-86
2023/09/17 00:34:19;;;;;;;7.18;6.28;;;20.00;94.20;;;;;;5022919;28;20048;-85
2023/09/17 00:36:45;;;;;;;7.43;6.13;;;20.00;94.30;;;;;;5044765;28;20024;-85
2023/09/17 00:39:10;;;;;;;8.25;7.35;;;19.90;94.20;;;;;;5079243;28;20025;-85
2023/09/17 00:41:36;;;;;;;7.55;6.72;;;19.90;94.10;;;;;;5045550;28;20032;-85
2023/09/17 00:44:02;;;;;;;7.38;6.65;;;19.80;94.20;;;;;;5045273;28;20009;-86
2023/09/17 00:46:30;;;;;;;8.52;6.95;;;19.80;94.30;;;;;;5058713;28;20028;-86
2023/09/17 00:48:56;;;;;;;8.32;6.75;;;19.80;94.50;;;;;;5056784;28;20044;-85
2023/09/17 00:51:22;;;;;;;8.90;6.88;;;19.80;94.70;;;;;;5021205;28;20017;-86
2023/09/17 00:53:48;;;;;;;7.65;6.45;;;19.80;94.80;;;;;;5037064;28;20029;-86
2023/09/17 00:56:15;;;;;;;7.75;6.95;;;19.80;94.90;;;;;;5020564;28;20049;-86
2023/09/17 00:58:41;;;;;;;8.25;7.45;;;19.70;95.10;;;;;;5036527;28;20053;-86
2023/09/17 01:01:11;;;;;;;8.65;6.93;;;19.70;95.20;;;;;;5054564;28;20032;-86
2023/09/17 01:03:37;;;;;;;8.95;7.78;;;19.70;95.40;;;;;;5020516;28;20445;-86
2023/09/17 01:06:04;;;;;;;8.15;7.20;;;19.60;95.40;;;;;;5036565;28;20025;-85
2023/09/17 01:08:30;;;;;;;8.65;7.38;;;19.60;95.60;;;;;;5019962;28;20057;-87
2023/09/17 01:10:57;;;;;;;10.25;7.82;;;19.60;95.70;;;;;;5036201;28;20029;-86
2023/09/17 01:13:24;;;;;;;10.82;7.65;;;19.60;95.70;;;;;;5053975;28;20407;-86
2023/09/17 01:15:51;;;;;;;8.75;7.55;;;19.60;95.70;;;;;;5054064;28;20025;-86
2023/09/17 01:18:21;;;;;;;8.55;7.70;;;19.50;95.60;;;;;;5020238;28;20025;-87
2023/09/17 01:20:55;;;;;;;7.75;6.95;;;19.50;95.60;;;;;;5037331;28;20027;-87
2023/09/17 01:23:46;;;;;;;8.45;7.03;;;19.50;95.70;;;;;;5036418;28;20039;-87
2023/09/17 01:26:35;;;;;;;9.18;8.27;;;19.40;95.80;;;;;;5053832;28;20017;-87
2023/09/17 01:29:04;;;;;;;9.50;8.52;;;19.40;95.90;;;;;;5053876;28;20087;-87
2023/09/17 01:31:30;;;;;;;12.18;8.80;;;19.30;95.90;;;;;;5020124;28;20037;-87
2023/09/17 01:33:56;;;;;;;11.73;8.60;;;19.30;96.00;;;;;;5036098;28;20092;-86
2023/09/17 01:36:34;;;;;;;8.82;7.93;;;19.20;96.10;;;;;;5019523;28;20444;-87
2023/09/17 01:39:05;;;;;;;10.18;8.23;;;19.20;96.30;;;;;;5053771;28;20047;-86
2023/09/17 01:41:33;;;;;;;9.52;8.52;;;19.20;96.30;;;;;;5036038;28;20024;-86
2023/09/17 01:44:00;;;;;;;9.45;7.95;;;19.20;96.40;;;;;;5035751;28;20023;-86
2023/09/17 01:46:26;;;;;;;10.35;9.15;;;19.20;96.50;;;;;;5036247;28;20021;-86
2023/09/17 01:48:53;;;;;;;8.60;7.78;;;19.20;96.60;;;;;;5053848;28;20025;-86
2023/09/17 01:51:19;;;;;;;9.80;8.80;;;19.20;96.70;;;;;;5035895;28;20021;-86
2023/09/17 01:53:45;;;;;;;12.63;9.63;;;19.10;96.80;;;;;;5035791;28;20025;-87
2023/09/17 01:56:14;;;;;;;9.60;8.60;;;19.10;96.90;;;;;;5019205;28;20033;-87
2023/09/17 01:58:40;;;;;;;10.05;8.93;;;19.10;97.30;;;;;;5019442;28;20122;-86
2023/09/17 02:01:06;;;;;;;9.32;8.30;;;19.00;97.10;;;;;;5035841;28;20071;-87
2023/09/17 02:03:31;;;;;;;11.90;9.48;;;19.00;97.10;;;;;;5035647;28;20017;-86
2023/09/17 02:05:58;;;;;;;10.43;9.43;;;19.00;97.30;;;;;;5035589;28;20103;-86
2023/09/17 02:08:24;;;;;;;10.05;9.00;;;18.90;97.40;;;;;;5019327;28;20400;-87
2023/09/17 02:10:50;;;;;;;9.60;8.60;;;18.90;97.50;;;;;;5038835;28;20037;-87
2023/09/17 02:13:16;;;;;;;9.85;8.88;;;18.90;97.50;;;;;;5023030;28;20025;-86
2023/09/17 02:15:44;;;;;;;9.68;8.77;;;18.90;97.50;;;;;;5023727;28;20467;-86
2023/09/17 02:18:10;;;;;;;10.70;8.60;;;18.90;97.50;;;;;;5023550;28;20457;-86
2023/09/17 02:20:39;;;;;;;10.20;8.75;;;18.90;97.60;;;;;;5024054;28;20087;-86
2023/09/17 02:23:06;;;;;;;10.05;9.05;;;18.90;97.50;;;;;;5064601;28;20080;-86
2023/09/17 02:25:32;;;;;;;10.93;9.13;;;18.80;97.50;;;;;;5061178;28;20104;-86
2023/09/17 02:27:57;;;;;;;9.90;8.40;;;18.80;97.40;;;;;;5080820;28;20028;-86
2023/09/17 02:30:23;;;;;;;9.00;8.10;;;18.70;97.40;;;;;;5047267;28;20050;-86
2023/09/17 02:32:49;;;;;;;10.10;8.80;;;18.70;97.40;;;;;;5051792;28;20044;-86
2023/09/17 02:35:14;;;;;;;10.35;9.32;;;18.60;97.40;;;;;;5031606;28;20437;-86
2023/09/17 02:37:40;;;;;;;9.88;8.80;;;18.60;97.40;;;;;;5043943;28;20484;-86
2023/09/17 02:40:09;;;;;;;10.50;9.48;;;18.60;97.40;;;;;;5058468;28;20021;-87
2023/09/17 02:42:36;;;;;;;11.00;9.15;;;18.50;97.50;;;;;;5023385;28;20455;-86
2023/09/17 02:45:03;;;;;;;11.82;9.35;;;18.50;97.60;;;;;;5039602;28;20433;-86
2023/09/17 02:47:28;;;;;;;11.40;10.10;;;18.50;97.80;;;;;;5039282;28;20025;-87
2023/09/17 02:49:54;;;;;;;10.68;9.40;;;18.50;97.80;;;;;;5038778;28;20024;-87
2023/09/17 02:52:20;;;;;;;11.85;8.40;;;18.50;97.90;;;;;;5021811;28;20090;-85
2023/09/17 02:54:46;;;;;;;10.73;9.15;;;18.50;98.10;;;;;;5022580;28;20021;-86
2023/09/17 02:57:11;;;;;;;9.18;8.27;;;18.50;98.20;;;;;;5022450;28;20027;-87
2023/09/17 02:59:37;;;;;;;9.10;8.18;;;18.50;98.20;;;;;;5039035;28;20510;-86
2023/09/17 03:02:03;;;;;;;9.45;8.40;;;18.50;98.30;;;;;;5039187;28;20053;-85
2023/09/17 03:04:29;;;;;;;10.35;8.02;;;18.50;98.30;;;;;;5022381;28;20029;-87
2023/09/17 03:06:56;;;;;;;10.68;8.43;;;18.50;98.40;;;;;;5038819;28;20033;-87
2023/09/17 03:09:24;;;;;;;10.10;9.05;;;18.50;98.40;;;;;;5038815;28;20080;-88
2023/09/17 03:11:50;;;;;;;9.90;8.90;;;18.50;98.50;;;;;;5038872;28;20017;-86
2023/09/17 03:14:16;;;;;;;10.68;9.10;;;18.60;98.50;;;;;;5038400;28;20020;-86
2023/09/17 03:16:42;;;;;;;10.10;9.05;;;18.50;98.60;;;;;;5056385;28;20021;-87
2023/09/17 03:19:07;;;;;;;10.50;8.95;;;18.50;98.60;;;;;;5038725;28;20068;-87
2023/09/17 03:21:40;;;;;;;10.45;9.05;;;18.50;98.60;;;;;;5021765;28;20075;-87
2023/09/17 03:24:06;;;;;;;10.25;9.15;;;18.50;98.70;;;;;;5039806;28;20079;-85
2023/09/17 03:26:32;;;;;;;11.13;9.40;;;18.40;98.70;;;;;;5022139;28;20368;-87
2023/09/17 03:28:58;;;;;;;10.80;9.00;;;18.40;98.80;;;;;;5038669;28;20028;-87
2023/09/17 03:31:24;;;;;;;11.23;10.13;;;18.40;98.90;;;;;;5021845;28;20021;-87
2023/09/17 03:33:50;;;;;;;10.98;8.75;;;18.40;99.00;;;;;;5021909;28;20346;-87
2023/09/17 03:36:15;;;;;;;9.55;8.65;;;18.30;99.00;;;;;;5056155;28;20365;-87
2023/09/17 03:38:41;;;;;;;9.40;8.50;;;18.30;99.10;;;;;;5038461;28;20108;-86
2023/09/17 03:41:07;;;;;;;11.20;9.05;;;18.30;99.10;;;;;;5021993;28;20024;-88
2023/09/17 03:43:34;;;;;;;11.15;9.32;;;18.30;99.20;;;;;;5038022;28;20404;-87
2023/09/17 03:46:06;;;;;;;10.77;9.68;;;18.30;99.20;;;;;;5056138;28;20028;-87
2023/09/17 03:48:33;;;;;;;10.15;9.10;;;18.30;99.20;;;;;;5022430;28;20025;-86
2023/09/17 03:51:00;;;;;;;10.73;9.63;;;18.30;99.30;;;;;;5021532;28;20464;-87
2023/09/17 03:53:27;;;;;;;10.32;9.23;;;18.30;99.30;;;;;;5055729;28;20125;-86
2023/09/17 03:55:53;;;;;;;11.10;9.98;;;18.20;99.40;;;;;;5038393;28;20021;-87
2023/09/17 03:58:21;;;;;;;10.48;9.38;;;18.30;99.50;;;;;;5037747;28;20053;-86
2023/09/17 04:00:48;;;;;;;14.15;9.50;;;18.30;99.50;;;;;;5038290;28;20021;-86
2023/09/17 04:03:18;;;;;;;13.13;10.05;;;18.30;99.60;;;;;;5037930;28;20025;-86
2023/09/17 04:05:45;;;;;;;10.98;9.88;;;18.40;99.70;;;;;;5038481;28;20040;-86
2023/09/17 04:08:11;;;;;;;10.57;9.57;;;18.30;99.80;;;;;;5039042;28;20099;-84
2023/09/17 04:10:37;;;;;;;11.52;9.70;;;18.30;99.80;;;;;;5006084;28;20029;-86
2023/09/17 04:13:02;;;;;;;11.88;10.48;;;18.40;99.90;;;;;;5057510;28;20457;-87
2023/09/17 04:15:28;;;;;;;12.30;10.18;;;18.40;99.90;;;;;;5023416;28;20357;-86
2023/09/17 04:17:54;;;;;;;10.18;9.15;;;18.30;99.90;;;;;;5055583;28;20104;-86
2023/09/17 04:20:20;;;;;;;11.10;9.95;;;18.20;99.90;;;;;;5022418;28;20029;-86
2023/09/17 04:22:48;;;;;;;10.13;9.13;;;18.30;99.90;;;;;;5058402;28;20024;-87
2023/09/17 04:25:15;;;;;;;12.77;11.52;;;18.20;99.90;;;;;;5045799;28;20045;-85
2023/09/17 04:27:44;;;;;;;11.27;10.18;;;18.20;99.90;;;;;;5045630;28;20037;-86
2023/09/17 04:30:13;;;;;;;12.38;10.93;;;18.10;99.90;;;;;;5039369;28;20021;-86
2023/09/17 04:32:41;;;;;;;12.95;10.73;;;18.20;99.90;;;;;;5021570;28;20453;-87
2023/09/17 04:35:08;;;;;;;10.95;9.85;;;18.10;99.90;;;;;;5055641;28;20044;-87
2023/09/17 04:37:35;;;;;;;11.75;10.30;;;18.10;99.90;;;;;;5020905;28;20052;-86
2023/09/17 04:40:01;;;;;;;11.27;10.18;;;18.10;99.90;;;;;;5055082;28;20029;-86
2023/09/17 04:42:30;;;;;;;12.60;11.25;;;18.10;99.90;;;;;;5036782;28;20029;-87
2023/09/17 04:44:55;;;;;;;11.48;10.30;;;18.10;99.90;;;;;;5055111;28;20104;-87
2023/09/17 04:47:21;;;;;;;13.00;11.70;;;18.10;99.90;;;;;;5036974;28;20108;-86
2023/09/17 04:49:46;;;;;;;13.80;12.32;;;18.10;99.90;;;;;;5037167;28;20175;-87
2023/09/17 04:52:12;;;;;;;13.05;11.65;;;18.00;99.90;;;;;;5037255;28;20480;-87
2023/09/17 04:54:38;;;;;;;13.45;11.80;;;18.00;99.90;;;;;;5020027;28;20420;-87
2023/09/17 04:57:05;;;;;;;13.07;11.77;;;17.90;99.90;;;;;;5020546;28;20028;-87
2023/09/17 04:59:31;;;;;;;12.52;11.23;;;17.90;99.90;;;;;;5020228;28;20380;-86
2023/09/17 05:01:57;;;;;;;13.65;11.93;;;17.90;99.90;;;;;;5004269;28;20128;-86
2023/09/17 05:04:24;;;;;;;11.73;10.63;;;17.90;99.90;;;;;;5054068;28;20404;-87
2023/09/17 05:06:50;;;;;;;14.43;12.27;;;17.90;99.90;;;;;;5036937;28;20112;-87
2023/09/17 05:09:16;;;;;;;13.18;11.88;;;17.90;99.90;;;;;;5036190;28;20045;-87
2023/09/17 05:11:41;;;;;;;14.48;13.07;;;18.00;99.90;;;;;;5019874;28;20403;-87
2023/09/17 05:14:07;;;;;;;12.95;11.65;;;18.00;99.90;;;;;;5036676;28;20498;-87
2023/09/17 05:16:34;;;;;;;13.48;12.07;;;18.00;99.90;;;;;;5020269;28;20471;-86
2023/09/17 05:18:59;;;;;;;13.25;11.52;;;18.00;99.90;;;;;;5036574;28;20353;-87
2023/09/17 05:21:25;;;;;;;12.93;11.18;;;18.00;99.90;;;;;;5003542;28;20013;-87
2023/09/17 05:23:50;;;;;;;12.95;11.55;;;18.00;99.90;;;;;;5003711;28;20554;-86
2023/09/17 05:26:16;;;;;;;13.25;11.85;;;18.00;99.90;;;;;;5036467;28;20060;-86
2023/09/17 05:28:42;;;;;;;13.30;12.00;;;18.00;99.90;;;;;;5019583;28;20029;-87
2023/09/17 05:31:07;;;;;;;13.95;12.43;;;18.00;99.90;;;;;;5019786;28;20044;-87
2023/09/17 05:33:33;;;;;;;13.63;12.30;;;18.00;99.90;;;;;;5019987;28;20074;-87
2023/09/17 05:35:59;;;;;;;13.40;11.88;;;18.00;99.90;;;;;;5036238;28;20025;-87
2023/09/17 05:38:28;;;;;;;12.70;11.40;;;18.00;99.90;;;;;;5019803;28;20456;-87
2023/09/17 05:40:54;;;;;;;12.82;11.63;;;18.00;99.90;;;;;;5036001;28;20444;-87
2023/09/17 05:43:23;;;;;;;12.63;11.35;;;18.00;99.90;;;;;;5020015;28;20029;-87
2023/09/17 05:45:55;;;;;;;11.82;10.55;;;18.00;99.90;;;;;;5019732;28;20079;-87
2023/09/17 05:48:21;;;;;;;12.82;11.52;;;18.10;99.90;;;;;;5020783;28;20469;-86
2023/09/17 05:50:49;;;;;;;12.43;11.23;;;18.10;99.90;;;;;;5003393;28;20017;-87
2023/09/17 05:53:15;;;;;;;11.40;10.20;;;18.10;99.90;;;;;;5020432;28;20021;-87
2023/09/17 05:55:40;;;;;;;12.45;11.07;;;18.10;99.90;;;;;;5036022;28;20083;-87
2023/09/17 05:58:06;;;;;;;12.18;10.98;;;18.10;99.90;;;;;;5019545;28;20453;-87
2023/09/17 06:00:31;;;;;;;12.43;11.23;;;18.10;99.90;;;;;;5036068;28;20025;-87
2023/09/17 06:02:57;;;;;;;12.23;10.93;;;18.10;99.90;;;;;;5020146;28;20025;-87
2023/09/17 06:05:23;;;;;;;11.23;10.13;;;18.10;99.90;;;;;;5037106;28;20028;-87
2023/09/17 06:07:49;;;;;;;11.27;10.18;;;18.10;99.90;;;;;;5005256;28;20075;-87
2023/09/17 06:10:15;;;;;;;11.43;10.10;;;18.00;99.90;;;;;;5042906;28;20044;-86
2023/09/17 06:12:41;;;;;;;10.82;9.73;;;18.00;99.90;;;;;;5044180;28;20025;-86
2023/09/17 06:15:07;;;;;;;11.15;10.05;;;18.10;99.90;;;;;;5044366;28;20077;-86
2023/09/17 06:17:33;;;;;;;10.30;9.18;;;18.10;99.90;;;;;;5059968;28;20048;-85
2023/09/17 06:19:59;;;;;;;10.23;9.23;;;18.10;99.90;;;;;;5052224;28;20466;-87
2023/09/17 06:22:25;;;;;;;10.68;9.57;;;18.20;99.90;;;;;;5036843;28;20025;-87
2023/09/17 06:24:50;;;;;;;9.25;8.32;;;18.20;99.90;;;;;;5019463;28;20032;-87
2023/09/17 06:27:16;;;;;;;10.95;9.85;;;18.20;99.90;;;;;;5036151;28;20025;-87
2023/09/17 06:29:42;;;;;;;10.00;8.98;;;18.30;99.90;;;;;;5019234;28;20057;-85
2023/09/17 06:32:08;;;;;;;9.93;8.93;;;18.30;99.90;;;;;;5018799;28;20051;-86
2023/09/17 06:34:35;;;;;;;10.52;9.43;;;18.30;99.90;;;;;;5053174;28;20072;-85
2023/09/17 06:37:01;;;;;;;10.90;9.75;;;18.30;99.90;;;;;;5035298;28;20431;-85
2023/09/17 06:39:27;;;;;;;10.98;9.65;;;18.30;99.90;;;;;;5035431;28;20017;-86
2023/09/17 06:41:53;;;;;;;10.38;9.32;;;18.30;99.90;;;;;;5018850;28;20036;-85
2023/09/17 06:44:18;;;;;;;10.52;9.52;;;18.30;99.90;;;;;;5019021;28;20024;-86
2023/09/17 06:46:45;;;;;;;10.88;8.63;;;18.30;99.90;;;;;;5034853;28;20032;-86
2023/09/17 06:49:10;;;;;;;11.77;9.38;;;18.30;99.90;;;;;;5053130;28;20036;-85
2023/09/17 06:51:36;;;;;;;9.63;8.63;;;18.40;99.90;;;;;;5035047;28;20025;-86
2023/09/17 06:54:03;;;;;;;10.48;9.30;;;18.40;99.90;;;;;;5035396;28;20025;-85
2023/09/17 06:56:29;;;;;;;11.48;9.10;;;18.40;99.90;;;;;;5037510;28;20104;-85
2023/09/17 06:58:55;;;;;;;9.45;8.45;;;18.40;99.90;;;;;;5038647;28;20032;-85
2023/09/17 07:01:21;;;;;;;10.02;8.63;;;18.50;99.90;;;;;;5038905;28;20033;-85
2023/09/17 07:03:47;;;;;;;9.23;8.15;;;18.50;99.90;;;;;;5022155;28;20055;-84
2023/09/17 07:06:13;;;;;;;8.80;7.68;;;18.40;99.90;;;;;;5022397;28;20055;-85
2023/09/17 07:08:38;;;;;;;8.18;7.38;;;18.50;99.90;;;;;;5038723;28;20045;-85
2023/09/17 07:11:04;;;;;;;8.73;7.75;;;18.50;99.90;;;;;;5038568;28;20025;-85
2023/09/17 07:13:31;;;;;;;8.85;7.95;;;18.50;99.90;;;;;;5022353;28;20025;-85
2023/09/17 07:15:56;;;;;;;9.70;8.50;;;18.40;99.90;;;;;;5022047;28;20079;-85
2023/09/17 07:18:22;;;;;;;9.50;7.70;;;18.50;99.90;;;;;;5038572;28;20029;-85
2023/09/17 07:20:51;;;;;;;8.55;7.75;;;18.50;99.90;;;;;;5021631;28;20112;-85
2023/09/17 07:23:16;;;;;;;8.52;7.70;;;18.50;99.90;;;;;;5039048;28;20021;-86
2023/09/17 07:25:44;;;;;;;8.90;8.00;;;18.50;99.90;;;;;;5038218;28;20025;-86
2023/09/17 07:28:10;;;;;;;7.93;7.15;;;18.50;99.90;;;;;;5056162;28;20027;-86
2023/09/17 07:30:36;;;;;;;8.30;7.38;;;18.50;99.90;;;;;;5038294;28;20076;-85
2023/09/17 07:33:05;;;;;;;8.57;7.72;;;18.60;99.90;;;;;;5021936;28;20060;-85
2023/09/17 07:35:37;;;;;;;8.30;7.13;;;18.60;99.90;;;;;;5038137;28;20235;-86
2023/09/17 07:38:03;;;;;;;9.43;8.05;;;18.60;99.90;;;;;;5037951;28;20142;-85
2023/09/17 07:40:29;;;;;;;10.13;7.97;;;18.60;99.90;;;;;;5021437;28;20107;-86
2023/09/17 07:42:54;;;;;;;9.18;8.27;;;18.60;99.90;;;;;;5037755;28;20024;-86
2023/09/17 07:45:20;;;;;;;10.45;7.90;;;18.60;99.90;;;;;;5055817;28;20033;-85
2023/09/17 07:47:46;;;;;;;10.10;7.90;;;18.60;99.90;;;;;;5020834;28;20033;-85
2023/09/17 07:50:11;;;;;;;9.68;8.10;;;18.60;99.90;;;;;;5038097;28;20025;-85
2023/09/17 07:52:39;;;;;;;9.43;8.43;;;18.60;99.90;;;;;;5037790;28;20052;-86
2023/09/17 07:55:05;;;;;;;9.82;7.50;;;18.60;99.90;;;;;;5021666;28;20043;-85
2023/09/17 07:57:31;;;;;;;11.50;7.38;;;18.70;99.90;;;;;;5038533;28;20059;-86
2023/09/17 07:59:57;;;;;;;9.68;8.68;;;18.60;99.90;;;;;;5048702;28;20029;-85
2023/09/17 08:02:22;;;;;;;11.68;8.57;;;18.60;99.90;;;;;;5062739;28;20056;-86
2023/09/17 08:04:48;;;;;;;9.50;8.52;;;18.70;99.90;;;;;;5046598;28;20080;-83
2023/09/17 08:07:14;;;;;;;10.38;8.85;;;18.70;99.90;;;;;;5061234;28;20021;-85
2023/09/17 08:09:40;;;;;;;9.38;8.38;;;18.70;99.90;;;;;;5062695;28;20013;-85
2023/09/17 08:12:06;;;;;;;9.93;8.93;;;18.70;99.90;;;;;;5055797;28;20021;-85
2023/09/17 08:14:35;;;;;;;10.90;9.75;;;18.70;99.90;;;;;;5046676;28;20059;-85
2023/09/17 08:17:01;;;;;;;10.48;9.38;;;18.70;99.90;;;;;;5042340;28;20040;-85
2023/09/17 08:19:27;;;;;;;10.20;9.02;;;18.70;99.90;;;;;;5055339;28;20044;-85
2023/09/17 08:21:53;;;;;;;10.15;8.88;;;18.80;99.90;;;;;;5020974;28;20524;-85
2023/09/17 08:24:20;;;;;;;9.88;8.88;;;18.80;99.90;;;;;;5021845;28;20398;-85
2023/09/17 08:26:47;;;;;;;9.52;8.43;;;18.80;99.90;;;;;;5037560;28;20024;-85
2023/09/17 08:29:13;;;;;;;11.05;9.93;;;18.80;99.90;;;;;;5000601;28;20056;-86
2023/09/17 08:31:39;;;;;;;10.77;9.77;;;18.80;99.90;;;;;;5017388;28;20049;-86
2023/09/17 08:34:04;;;;;;;11.40;10.20;;;18.70;99.90;;;;;;5018435;28;20120;-87
2023/09/17 08:36:31;;;;;;;11.65;10.45;;;18.80;99.90;;;;;;5020922;28;20044;-86
2023/09/17 08:38:56;;;;;;;11.93;10.32;;;18.80;99.90;;;;;;5031830;28;20029;-86
2023/09/17 08:41:25;;;;;;;12.18;10.68;;;18.80;99.90;;;;;;5013589;28;20097;-86
2023/09/17 08:43:54;;;;;;;10.75;9.65;;;18.80;99.90;;;;;;5020999;28;20361;-86
2023/09/17 08:46:21;;;;;;;11.80;10.35;;;18.80;99.90;;;;;;5019836;28;20033;-86
2023/09/17 08:48:47;;;;;;;10.75;9.65;;;18.80;99.90;;;;;;5037786;28;20028;-86
2023/09/17 08:51:15;;;;;;;11.07;9.95;;;18.80;99.90;;;;;;5016450;28;20032;-87
2023/09/17 08:54:02;;;;;;;11.55;10.27;;;18.80;99.90;;;;;;5036492;28;20414;-88
2023/09/17 08:56:30;;;;;;;11.45;10.15;;;18.90;99.90;;;;;;5036284;28;20021;-86
2023/09/17 08:59:03;;;;;;;12.38;10.80;;;18.80;99.90;;;;;;5054989;28;20025;-86
2023/09/17 09:01:30;;;;;;;12.20;10.82;;;18.90;99.90;;;;;;5074737;28;20471;-85
2023/09/17 09:03:56;;;;;;;14.57;11.43;;;18.80;99.90;;;;;;5074436;28;20019;-87
2023/09/17 09:06:24;;;;;;;12.15;10.95;;;18.80;99.90;;;;;;5039284;28;20372;-84
2023/09/17 09:08:52;;;;;;;12.23;10.93;;;18.80;99.90;;;;;;5056210;28;20532;-85
2023/09/17 09:11:18;;;;;;;13.30;11.90;;;18.80;99.90;;;;;;5056004;28;20467;-86
2023/09/17 09:13:46;;;;;;;12.27;11.02;;;18.90;99.90;;;;;;5035857;28;20021;-86
2023/09/17 09:16:12;;;;;;;14.07;11.50;;;18.80;99.90;;;;;;5035400;28;20060;-85
2023/09/17 09:18:38;;;;;;;13.23;11.77;;;18.90;99.90;;;;;;5019866;28;20456;-86
2023/09/17 09:21:04;;;;;;;13.50;12.13;;;18.90;99.90;;;;;;5017338;28;20592;-85
2023/09/17 09:23:30;;;;;;;13.98;12.18;;;19.00;99.90;;;;;;5000116;28;20029;-85
2023/09/17 09:25:55;;;;;;;13.93;12.52;;;19.00;99.90;;;;;;4999580;28;20018;-86
2023/09/17 09:28:21;;;;;;;13.13;11.68;;;19.00;99.90;;;;;;5018743;28;20086;-84
2023/09/17 09:30:46;;;;;;;13.95;12.45;;;19.00;99.90;;;;;;5040081;28;20052;-86
2023/09/17 09:33:13;;;;;;;13.77;12.30;;;19.00;99.90;;;;;;5035435;28;20037;-86
2023/09/17 09:35:39;;;;;;;13.75;12.27;;;19.10;99.90;;;;;;5039537;28;20029;-85
2023/09/17 09:38:06;;;;;;;13.82;12.27;;;19.10;99.90;;;;;;5053693;28;20040;-86
2023/09/17 09:40:36;;;;;;;14.30;12.85;;;19.20;99.90;;;;;;5036086;28;20033;-86
2023/09/17 09:43:02;;;;;;;13.70;11.88;;;19.20;99.90;;;;;;5026763;28;20020;-84
2023/09/17 09:45:28;;;;;;;15.60;13.43;;;19.30;99.90;;;;;;5074580;28;20032;-85
2023/09/17 09:47:54;;;;;;;14.30;12.10;;;19.30;99.90;;;;;;5040084;28;20028;-85
2023/09/17 09:50:24;;;;;;;15.70;14.10;;;19.30;99.90;;;;;;5032020;28;20461;-86
2023/09/17 09:52:53;;;;;;;14.80;13.30;;;19.30;99.90;;;;;;5060010;28;20027;-86
2023/09/17 09:55:25;;;;;;;13.88;12.38;;;19.30;99.90;;;;;;5061717;28;20036;-86
2023/09/17 09:57:54;;;;;;;14.18;12.23;;;19.30;99.90;;;;;;5046476;28;20022;-83
2023/09/17 10:00:28;;;;;;;14.23;12.50;;;19.40;99.90;;;;;;5058157;28;20017;-85
2023/09/17 10:02:54;;;;;;;13.93;12.40;;;19.40;99.90;;;;;;5051922;28;20069;-85
2023/09/17 10:05:42;;;;;;;14.80;13.20;;;19.50;99.90;;;;;;5051715;28;20024;-86
2023/09/17 10:08:09;;;;;;;14.80;12.73;;;19.50;99.90;;;;;;5019343;28;20140;-85
2023/09/17 10:10:36;;;;;;;14.23;12.82;;;19.60;99.90;;;;;;4997815;28;20037;-85
2023/09/17 10:13:05;;;;;;;14.63;13.13;;;19.60;99.90;;;;;;5026976;28;20029;-84
2023/09/17 10:15:34;;;;;;;14.82;13.25;;;19.70;99.90;;;;;;5013088;28;20029;-83
2023/09/17 10:18:01;;;;;;;15.88;13.07;;;19.70;99.90;;;;;;5030506;28;20026;-84
2023/09/17 10:20:28;;;;;;;14.45;12.95;;;19.70;99.90;;;;;;5031316;28;20013;-84
2023/09/17 10:22:56;;;;;;;15.57;13.25;;;19.70;99.90;;;;;;5015760;28;20018;-83
2023/09/17 10:25:23;;;;;;;16.98;15.20;;;19.80;99.90;;;;;;5031187;28;20030;-83
2023/09/17 10:27:50;;;;;;;16.55;13.90;;;19.80;99.90;;;;;;5017360;28;20047;-85
2023/09/17 10:30:17;;;;;;;15.40;13.45;;;19.80;99.90;;;;;;5028225;28;20029;-85
2023/09/17 10:32:44;;;;;;;19.55;14.88;;;19.80;99.90;;;;;;5027342;28;20017;-85
2023/09/17 10:35:11;;;;;;;15.45;13.82;;;19.90;99.90;;;;;;5035376;28;20553;-85
2023/09/17 10:37:39;;;;;;;15.27;13.68;;;19.90;99.90;;;;;;5032512;28;20466;-84
2023/09/17 10:40:10;;;;;;;16.58;14.50;;;19.90;99.90;;;;;;5024916;28;20033;-85
2023/09/17 10:42:38;;;;;;;16.52;14.13;;;20.00;99.90;;;;;;5035438;28;20025;-85
2023/09/17 10:45:07;;;;;;;16.83;14.43;;;20.00;99.90;;;;;;5036339;28;20017;-85
2023/09/17 10:47:35;;;;;;;15.88;14.18;;;20.10;99.90;;;;;;5035283;28;20484;-85
2023/09/17 10:50:03;;;;;;;16.90;14.60;;;20.10;99.90;;;;;;5018300;28;20029;-84
2023/09/17 10:52:30;;;;;;;17.77;15.88;;;20.10;99.90;;;;;;5035894;28;20078;-83
2023/09/17 10:54:55;;;;;;;18.48;16.20;;;20.20;99.90;;;;;;5045640;28;20021;-84
2023/09/17 10:57:47;;;;;;;17.95;16.05;;;20.30;99.90;;;;;;5018662;28;20449;-84
2023/09/17 11:00:17;;;;;;;18.63;15.95;;;20.30;99.90;;;;;;5032930;28;20461;-84
2023/09/17 11:02:50;;;;;;;19.08;15.63;;;20.30;99.90;;;;;;5037413;28;20025;-84
2023/09/17 11:05:20;;;;;;;20.65;17.05;;;20.40;99.90;;;;;;5034236;28;20075;-84
2023/09/17 11:07:46;;;;;;;20.40;17.20;;;20.40;99.90;;;;;;5034888;28;20073;-84
2023/09/17 11:10:14;;;;;;;20.23;17.48;;;20.50;99.90;;;;;;5014802;28;20528;-83
2023/09/17 11:12:41;;;;;;;18.38;16.13;;;20.50;99.90;;;;;;4999301;28;20026;-84
2023/09/17 11:15:08;;;;;;;22.75;19.25;;;20.60;99.90;;;;;;5029007;28;20025;-83
2023/09/17 11:17:34;;;;;;;20.33;17.98;;;20.70;99.90;;;;;;5034615;28;20028;-84
2023/09/17 11:20:00;;;;;;;19.83;17.73;;;20.70;99.90;;;;;;5004400;28;20021;-83
2023/09/17 11:22:36;;;;;;;21.13;17.30;;;20.80;99.90;;;;;;5034704;28;20446;-84
2023/09/17 11:25:03;;;;;;;19.45;15.95;;;20.80;99.90;;;;;;5034335;28;20056;-84
2023/09/17 11:27:48;;;;;;;21.08;18.50;;;20.90;99.90;;;;;;5016818;28;20053;-84
2023/09/17 11:30:18;;;;;;;20.25;17.30;;;21.00;99.90;;;;;;5016339;28;20034;-83
2023/09/17 11:32:54;;;;;;;19.08;15.82;;;21.00;99.90;;;;;;5018564;28;20431;-83
2023/09/17 11:35:22;;;;;;;21.20;18.52;;;21.00;99.90;;;;;;5018361;28;20017;-84
2023/09/17 11:37:48;;;;;;;20.65;18.45;;;21.10;99.90;;;;;;5034381;28;20402;-84
2023/09/17 11:40:14;;;;;;;22.00;19.30;;;21.20;99.90;;;;;;5018128;28;20108;-83
2023/09/17 11:42:40;;;;;;;21.05;18.80;;;21.20;99.90;;;;;;5035174;28;20022;-84
2023/09/17 11:45:08;;;;;;;19.88;17.88;;;21.30;99.90;;;;;;5018891;28;20080;-84
2023/09/17 11:47:35;;;;;;;19.67;17.30;;;21.30;99.90;;;;;;5040514;28;20084;-84
2023/09/17 11:50:01;;;;;;;19.35;17.25;;;21.30;99.90;;;;;;5057836;28;20029;-84
2023/09/17 11:52:27;;;;;;;20.33;17.50;;;21.30;99.90;;;;;;5039337;28;20014;-84
2023/09/17 11:55:11;;;;;;;19.58;16.85;;;21.40;99.90;;;;;;5034884;28;20030;-84
2023/09/17 11:57:37;;;;;;;21.50;16.85;;;21.40;99.90;;;;;;5049631;28;20033;-83
2023/09/17 12:00:09;;;;;;;18.58;16.60;;;21.40;99.90;;;;;;5053117;28;20128;-84
2023/09/17 12:02:36;;;;;;;19.83;17.77;;;21.50;99.90;;;;;;5015945;28;20112;-84
2023/09/17 12:05:04;;;;;;;19.35;16.92;;;21.50;99.90;;;;;;5035636;28;20026;-84
2023/09/17 12:07:30;;;;;;;22.67;18.33;;;21.50;99.90;;;;;;5035364;28;20064;-84
2023/09/17 12:10:09;;;;;;;19.02;16.73;;;21.50;99.90;;;;;;5023718;28;20040;-84
2023/09/17 12:12:38;;;;;;;18.27;16.38;;;21.50;99.90;;;;;;5037181;28;20441;-84
2023/09/17 12:15:05;;;;;;;21.15;17.10;;;21.50;99.90;;;;;;5020936;28;20021;-84
2023/09/17 12:17:33;;;;;;;20.00;17.88;;;21.50;99.90;;;;;;5037018;28;20373;-84
2023/09/17 12:20:19;;;;;;;20.27;18.13;;;21.50;99.90;;;;;;5034132;28;20025;-84
2023/09/17 12:22:55;;;;;;;18.63;16.73;;;21.50;99.90;;;;;;5039696;28;20013;-83
2023/09/17 12:25:21;;;;;;;19.40;17.42;;;21.50;99.90;;;;;;5045787;28;20109;-84
2023/09/17 12:27:47;;;;;;;21.15;18.90;;;21.50;99.90;;;;;;5036325;28;20037;-84
2023/09/17 12:30:14;;;;;;;21.65;19.27;;;21.50;99.90;;;;;;5046185;28;20390;-84
2023/09/17 12:32:40;;;;;;;19.27;17.25;;;21.60;99.90;;;;;;5037519;28;20074;-84
2023/09/17 12:35:06;;;;;;;20.15;18.08;;;21.50;99.90;;;;;;5037423;28;20029;-83